Time;durP1;ratioP1;P1;durP2;ratioP2;P2;SDS_P1;SDS_P2;PMS_P1;PMS_P2;Temp;Humidity;BMP_temperature;BMP_pressure;BME280_temperature;BME280_humidity;BME280_pressure;Samples;Min_cycle;Max_cycle;Signal;HPM_P1;HPM_P2
2023/01/28 00:02:54;;;;;;;2.60;2.10;;;;;;;3.68;75.92;101008.69;10349771;28;20634;-54
2023/01/28 00:07:56;;;;;;;2.65;2.10;;;;;;;3.62;75.83;101003.66;10347846;28;20050;-49
2023/01/28 00:12:58;;;;;;;3.28;2.63;;;;;;;3.62;76.04;101010.69;10353575;28;20148;-49
2023/01/28 00:17:59;;;;;;;3.00;2.65;;;;;;;3.67;75.71;101000.84;10354420;28;20422;-49
2023/01/28 00:23:01;;;;;;;2.60;2.22;;;;;;;3.60;76.24;101005.47;10353689;28;20061;-57
2023/01/28 00:28:02;;;;;;;3.08;2.35;;;;;;;3.55;76.03;100991.66;10359991;28;20053;-50
2023/01/28 00:33:04;;;;;;;3.80;2.35;;;;;;;3.60;76.00;100994.94;10345442;28;20052;-50
2023/01/28 00:38:05;;;;;;;3.25;2.75;;;;;;;3.58;76.06;101001.22;10345549;28;20053;-50
2023/01/28 00:43:06;;;;;;;3.72;2.75;;;;;;;3.51;76.15;101006.72;10348942;28;20049;-50
2023/01/28 00:48:08;;;;;;;3.15;2.30;;;;;;;3.50;76.08;100998.91;10350523;28;20070;-51
2023/01/28 00:53:09;;;;;;;4.20;2.80;;;;;;;3.52;76.08;101010.22;10341224;28;20821;-50
2023/01/28 00:58:11;;;;;;;2.70;2.47;;;;;;;3.51;75.80;101005.84;10349523;28;20103;-50
2023/01/28 01:03:12;;;;;;;3.45;2.85;;;;;;;3.53;75.52;101009.31;10349690;28;20049;-50
2023/01/28 01:08:14;;;;;;;3.72;2.67;;;;;;;3.57;75.59;101021.41;10350901;28;20495;-50
2023/01/28 01:13:15;;;;;;;5.47;2.63;;;;;;;3.59;75.58;101022.22;10349292;28;20073;-50
2023/01/28 01:18:17;;;;;;;3.35;2.50;;;;;;;3.57;75.13;101007.41;10344291;28;20120;-50
2023/01/28 01:23:18;;;;;;;2.90;2.58;;;;;;;3.46;75.19;100987.59;10343689;28;20084;-49
2023/01/28 01:28:21;;;;;;;4.70;2.63;;;;;;;3.75;74.68;101033.00;10345539;28;20136;-50
2023/01/28 01:33:22;;;;;;;3.03;2.30;;;;;;;3.74;74.74;101033.06;10345872;28;20053;-50
2023/01/28 01:38:24;;;;;;;2.95;2.75;;;;;;;3.74;74.91;101040.94;10342494;28;20518;-49
2023/01/28 01:43:55;;;;;;;3.85;2.67;;;;;;;3.67;74.79;101048.25;10341520;28;20061;-49
2023/01/28 01:49:06;;;;;;;2.58;2.38;;;;;;;3.72;74.85;101039.25;10344174;28;20897;-50
2023/01/28 01:54:07;;;;;;;3.40;2.83;;;;;;;3.73;74.72;101045.38;10345633;28;20137;-49
2023/01/28 01:59:14;;;;;;;2.80;2.60;;;;;;;3.70;74.74;101048.13;10342045;28;20064;-49
2023/01/28 02:04:24;;;;;;;2.20;2.00;;;;;;;3.70;74.99;101058.66;10341994;28;20049;-50
2023/01/28 02:09:30;;;;;;;2.92;2.20;;;;;;;3.68;75.29;101058.72;10343245;28;20132;-49
2023/01/28 02:14:36;;;;;;;2.35;2.15;;;;;;;3.60;76.14;101057.28;10343941;28;20052;-49
2023/01/28 02:19:51;;;;;;;3.63;2.28;;;;;;;3.71;75.67;101052.50;10347786;28;20112;-49
2023/01/28 02:25:10;;;;;;;4.55;2.20;;;;;;;3.68;76.18;101055.25;10343876;28;20049;-49
2023/01/28 02:30:21;;;;;;;3.33;1.95;;;;;;;3.62;76.28;101050.19;10342071;28;20149;-49
2023/01/28 02:35:54;;;;;;;3.33;2.28;;;;;;;3.58;76.83;101049.47;10344960;28;20157;-50
2023/01/28 02:41:04;;;;;;;2.55;2.20;;;;;;;3.59;76.98;101056.44;10342509;28;20151;-50
2023/01/28 02:51:49;;;;;;;2.92;2.15;;;;;;;3.61;77.30;101054.59;10336985;28;20405;-50
2023/01/28 02:57:23;;;;;;;2.97;2.17;;;;;;;3.52;77.68;101062.88;10339819;28;20761;-49
2023/01/28 03:02:49;;;;;;;2.40;2.03;;;;;;;3.62;77.40;101065.97;10312521;28;20320;-52
2023/01/28 03:07:52;;;;;;;2.53;2.28;;;;;;;3.64;77.44;101059.75;10344470;28;20875;-50
2023/01/28 03:40:06;;;;;;;3.33;2.63;;;;;;;3.58;77.16;101069.69;10344082;28;20127;-49
2023/01/28 03:45:08;;;;;;;3.58;2.60;;;;;;;3.72;76.51;101089.28;10337648;28;20069;-49
2023/01/28 03:50:10;;;;;;;4.95;2.65;;;;;;;3.69;76.42;101097.31;10344341;28;20054;-50
2023/01/28 03:55:14;;;;;;;3.45;2.55;;;;;;;3.68;76.12;101097.38;10355045;28;20060;-49
2023/01/28 04:00:17;;;;;;;2.78;2.58;;;;;;;3.67;76.00;101099.13;10351306;28;20489;-53
2023/01/28 04:05:19;;;;;;;2.92;2.63;;;;;;;3.75;75.66;101104.09;10349301;28;20056;-50
2023/01/28 04:10:21;;;;;;;5.60;3.40;;;;;;;3.70;75.39;101101.63;10347083;28;20686;-51
2023/01/28 04:15:22;;;;;;;3.45;2.50;;;;;;;3.74;75.45;101097.13;10352358;28;20057;-49
2023/01/28 04:20:24;;;;;;;4.43;3.10;;;;;;;3.79;75.06;101108.34;10354920;28;20053;-49
2023/01/28 04:25:25;;;;;;;2.83;2.10;;;;;;;3.66;75.28;101112.34;10347140;28;20781;-49
2023/01/28 04:30:27;;;;;;;2.78;2.20;;;;;;;3.76;74.68;101111.09;10353643;28;20602;-49
2023/01/28 04:35:28;;;;;;;3.63;2.53;;;;;;;3.78;73.81;101109.25;10343895;28;20050;-49
2023/01/28 04:40:29;;;;;;;3.13;2.35;;;;;;;3.76;73.98;101115.50;10348001;28;20061;-49
2023/01/28 04:45:31;;;;;;;3.30;2.50;;;;;;;3.77;73.47;101114.56;10352266;28;20546;-49
2023/01/28 04:50:32;;;;;;;2.67;2.22;;;;;;;3.76;74.00;101105.81;10353111;28;20487;-49
2023/01/28 04:55:34;;;;;;;5.50;2.63;;;;;;;3.70;73.14;101103.44;10351171;28;20179;-49
2023/01/28 05:00:35;;;;;;;3.30;2.28;;;;;;;3.65;73.64;101113.28;10348628;28;20056;-49
2023/01/28 05:05:37;;;;;;;3.83;2.00;;;;;;;3.66;73.54;101105.34;10347834;28;20045;-51
2023/01/28 05:10:39;;;;;;;2.83;2.28;;;;;;;3.67;73.40;101112.28;10348628;28;20588;-50
2023/01/28 05:15:40;;;;;;;2.75;2.22;;;;;;;3.72;72.94;101120.00;10346431;28;20474;-49
2023/01/28 05:20:42;;;;;;;3.30;2.30;;;;;;;3.73;72.63;101116.47;10348294;28;20057;-50
2023/01/28 05:25:44;;;;;;;3.38;2.35;;;;;;;3.69;72.37;101128.03;10350750;28;20107;-49
2023/01/28 05:30:46;;;;;;;3.65;2.25;;;;;;;3.69;72.46;101135.94;10346905;28;20145;-49
2023/01/28 05:35:48;;;;;;;3.95;2.08;;;;;;;3.69;72.26;101135.94;10349032;28;20076;-50
2023/01/28 05:40:50;;;;;;;2.78;2.33;;;;;;;3.66;72.27;101143.94;10349124;28;20053;-50
2023/01/28 05:45:51;;;;;;;3.22;2.25;;;;;;;3.69;71.92;101138.56;10349362;28;20057;-50
2023/01/28 05:50:52;;;;;;;3.55;2.13;;;;;;;3.59;72.49;101156.50;10343161;28;20049;-49
2023/01/28 05:55:54;;;;;;;3.53;2.38;;;;;;;3.56;72.27;101151.34;10351376;28;20045;-50
2023/01/28 06:00:55;;;;;;;3.08;2.08;;;;;;;3.46;72.48;101156.06;10353494;28;20148;-50
2023/01/28 06:05:57;;;;;;;3.05;2.35;;;;;;;3.42;72.11;101170.25;10345268;28;20055;-49
2023/01/28 06:10:58;;;;;;;3.03;2.03;;;;;;;3.38;72.34;101158.13;10348881;28;20052;-50
2023/01/28 06:16:00;;;;;;;3.15;1.95;;;;;;;3.40;72.00;101161.56;10349705;28;20062;-49
2023/01/28 06:21:02;;;;;;;2.15;1.45;;;;;;;3.53;71.39;101173.38;10342894;28;20060;-49
2023/01/28 06:26:03;;;;;;;4.15;1.88;;;;;;;3.57;71.36;101178.53;10346256;28;20119;-49
2023/01/28 06:31:05;;;;;;;2.28;1.60;;;;;;;3.51;71.66;101175.22;10345755;28;20049;-49
2023/01/28 06:36:07;;;;;;;2.20;1.90;;;;;;;3.61;71.38;101186.25;10343131;28;20054;-49
2023/01/28 06:41:11;;;;;;;2.88;1.88;;;;;;;3.61;70.93;101190.66;10343665;28;20123;-49
2023/01/28 06:46:13;;;;;;;2.20;1.60;;;;;;;3.60;70.62;101195.06;10347249;28;20526;-56
2023/01/28 06:51:14;;;;;;;2.67;2.38;;;;;;;3.66;70.22;101204.50;10337436;28;20495;-51
2023/01/28 06:56:17;;;;;;;2.50;1.70;;;;;;;3.61;70.41;101201.19;10345494;28;20045;-51
2023/01/28 07:01:18;;;;;;;2.80;1.83;;;;;;;3.62;70.40;101202.91;10340241;28;20435;-51
2023/01/28 07:06:20;;;;;;;2.30;1.90;;;;;;;3.57;69.91;101200.44;10347199;28;20049;-55
2023/01/28 07:11:21;;;;;;;2.45;2.17;;;;;;;3.60;69.81;101199.47;10341050;28;20060;-52
2023/01/28 07:16:22;;;;;;;2.00;1.38;;;;;;;3.70;70.29;101214.03;10353250;28;20188;-52
2023/01/28 07:21:24;;;;;;;4.22;2.03;;;;;;;3.64;69.75;101222.16;10353776;28;20049;-53
2023/01/28 07:26:26;;;;;;;2.00;1.63;;;;;;;3.70;69.95;101214.03;10346710;28;20046;-53
2023/01/28 07:31:27;;;;;;;2.63;1.95;;;;;;;3.77;69.29;101233.09;10351870;28;20152;-52
2023/01/28 07:36:29;;;;;;;2.10;1.90;;;;;;;3.76;69.02;101221.69;10347616;28;20068;-51
2023/01/28 07:41:30;;;;;;;2.92;1.63;;;;;;;3.69;68.73;101230.72;10344572;28;20049;-52
2023/01/28 07:46:31;;;;;;;2.67;1.50;;;;;;;3.71;68.95;101228.91;10348040;28;20057;-53
2023/01/28 07:51:33;;;;;;;4.50;2.92;;;;;;;3.77;68.60;101236.59;10342736;28;20053;-56
2023/01/28 07:56:34;;;;;;;2.35;1.60;;;;;;;3.76;68.44;101237.50;10347454;28;20134;-52
2023/01/28 08:01:36;;;;;;;3.65;1.95;;;;;;;3.72;68.60;101247.31;10349069;28;20628;-51
2023/01/28 08:06:37;;;;;;;2.50;1.70;;;;;;;3.78;68.65;101246.19;10344980;28;20151;-51
2023/01/28 08:11:39;;;;;;;2.65;2.28;;;;;;;3.81;68.66;101246.09;10346481;28;20099;-52
2023/01/28 08:16:41;;;;;;;2.33;1.45;;;;;;;3.84;68.03;101261.81;10339412;28;20057;-52
2023/01/28 08:21:42;;;;;;;2.40;2.20;;;;;;;3.86;68.29;101261.75;10336516;28;20052;-52
2023/01/28 08:26:47;;;;;;;2.53;1.83;;;;;;;3.86;68.31;101262.59;10334544;28;20317;-51
2023/01/28 08:31:48;;;;;;;2.65;1.90;;;;;;;3.87;67.99;101256.41;10340213;28;20589;-52
2023/01/28 08:36:50;;;;;;;4.38;2.30;;;;;;;3.95;67.54;101273.69;10346845;28;20045;-52
2023/01/28 08:41:51;;;;;;;2.42;1.90;;;;;;;3.86;67.43;101257.31;10354731;28;20057;-51
2023/01/28 08:46:53;;;;;;;3.60;2.60;;;;;;;3.84;67.60;101277.59;10353944;28;20064;-54
2023/01/28 08:51:54;;;;;;;2.67;2.20;;;;;;;3.89;66.79;101274.81;10348546;28;22814;-51
2023/01/28 08:56:56;;;;;;;3.55;2.08;;;;;;;3.95;66.27;101278.97;10349755;28;20683;-52
2023/01/28 09:01:57;;;;;;;3.70;1.95;;;;;;;3.99;66.36;101288.47;10350724;28;20144;-51
2023/01/28 09:07:00;;;;;;;2.53;2.10;;;;;;;4.02;66.02;101291.00;10346460;28;20053;-52
2023/01/28 09:12:02;;;;;;;3.78;2.42;;;;;;;3.98;65.96;101284.13;10347880;28;20057;-50
2023/01/28 09:17:04;;;;;;;4.65;2.40;;;;;;;4.02;66.02;101296.28;10352687;28;20069;-51
2023/01/28 09:22:05;;;;;;;2.63;2.42;;;;;;;4.01;66.37;101299.84;10354831;28;20734;-51
2023/01/28 09:27:07;;;;;;;2.85;2.30;;;;;;;4.07;66.34;101299.63;10351274;28;20135;-51
2023/01/28 09:32:08;;;;;;;4.07;1.98;;;;;;;4.10;65.64;101307.41;10345835;28;20472;-49
2023/01/28 09:37:10;;;;;;;3.63;2.38;;;;;;;4.04;65.73;101312.91;10345681;28;20057;-52
2023/01/28 09:42:14;;;;;;;5.65;3.00;;;;;;;4.06;65.63;101314.56;10347883;28;20049;-52
2023/01/28 09:47:40;;;;;;;3.40;2.67;;;;;;;3.96;65.98;101309.69;10344859;28;20057;-51
2023/01/28 09:52:42;;;;;;;5.00;2.70;;;;;;;4.07;66.47;101324.19;10337143;28;20057;-52
2023/01/28 09:57:54;;;;;;;3.65;2.42;;;;;;;4.06;65.55;101309.28;10343799;28;20427;-52
2023/01/28 10:03:13;;;;;;;5.53;2.95;;;;;;;4.14;65.56;101327.44;10334971;28;20626;-50
2023/01/28 10:08:49;;;;;;;2.97;2.47;;;;;;;4.13;65.62;101335.41;10337687;28;20056;-51
2023/01/28 10:14:08;;;;;;;3.10;2.80;;;;;;;4.10;66.37;101339.03;10338760;28;20049;-51
2023/01/28 10:19:18;;;;;;;3.90;2.33;;;;;;;4.09;65.58;101329.41;10330986;28;20447;-52
2023/01/28 10:24:49;;;;;;;3.60;3.28;;;;;;;4.20;65.28;101337.78;10326010;28;20180;-52
2023/01/28 10:29:51;;;;;;;3.42;2.90;;;;;;;4.22;65.23;101343.84;10318481;28;20697;-51
2023/01/28 10:34:53;;;;;;;4.15;2.53;;;;;;;4.10;65.35;101341.66;10342571;28;20082;-51
2023/01/28 10:39:57;;;;;;;4.38;2.58;;;;;;;4.13;65.57;101344.19;10334110;28;20060;-51
2023/01/28 10:45:14;;;;;;;4.35;2.50;;;;;;;4.15;64.24;101344.97;10341682;28;20053;-52
2023/01/28 10:50:25;;;;;;;3.13;2.53;;;;;;;4.21;64.32;101344.75;10339828;28;20049;-52
2023/01/28 10:55:30;;;;;;;3.88;2.22;;;;;;;4.23;63.50;101337.69;10340895;28;20049;-51
2023/01/28 11:00:35;;;;;;;3.00;2.72;;;;;;;4.28;63.11;101342.78;10337070;28;20049;-51
2023/01/28 11:05:37;;;;;;;3.75;2.05;;;;;;;4.21;62.30;101326.31;10337021;28;20124;-51
2023/01/28 11:10:39;;;;;;;2.40;2.20;;;;;;;4.31;62.35;101333.88;10340822;28;20647;-51
2023/01/28 11:15:47;;;;;;;3.13;2.83;;;;;;;4.33;62.23;101337.34;10344404;28;20064;-51
2023/01/28 11:20:52;;;;;;;3.03;1.90;;;;;;;4.34;61.68;101344.31;10344356;28;20060;-52
2023/01/28 11:26:01;;;;;;;2.80;2.15;;;;;;;4.33;61.32;101334.69;10338020;28;20049;-55
2023/01/28 11:31:03;;;;;;;4.07;2.72;;;;;;;4.40;61.33;101339.69;10341605;28;20057;-51
2023/01/28 11:36:06;;;;;;;2.80;2.13;;;;;;;4.41;61.48;101345.78;10335504;28;20393;-51
2023/01/28 11:41:14;;;;;;;2.83;2.22;;;;;;;4.42;61.79;101335.19;10345071;28;20483;-52
2023/01/28 11:46:19;;;;;;;2.33;2.10;;;;;;;4.46;60.66;101330.69;10341101;28;20076;-51
2023/01/28 11:52:05;;;;;;;3.40;2.33;;;;;;;4.30;60.09;101311.09;10343710;28;20053;-51
2023/01/28 11:57:17;;;;;;;3.25;1.90;;;;;;;4.41;59.98;101320.31;10285462;28;20140;-51
2023/01/28 12:02:50;;;;;;;3.50;2.22;;;;;;;4.44;59.62;101319.31;10350450;28;20700;-51
2023/01/28 12:08:15;;;;;;;2.80;2.15;;;;;;;4.38;58.94;101311.63;10335854;28;20141;-51
2023/01/28 12:13:46;;;;;;;2.07;1.87;;;;;;;4.25;59.64;101314.75;10347581;28;20049;-53
2023/01/28 12:19:18;;;;;;;2.33;2.13;;;;;;;4.21;59.19;101307.84;10326395;28;20591;-50
2023/01/28 12:24:54;;;;;;;3.80;2.45;;;;;;;4.18;59.95;101307.97;10342559;28;20072;-51
2023/01/28 12:30:13;;;;;;;2.03;1.83;;;;;;;4.23;59.31;101319.22;10348729;28;20507;-51
2023/01/28 12:35:50;;;;;;;2.47;2.25;;;;;;;4.24;58.17;101318.28;10353280;28;20092;-51
2023/01/28 12:40:52;;;;;;;3.30;2.38;;;;;;;4.28;57.73;101307.63;10349209;28;20136;-51
2023/01/28 12:46:02;;;;;;;1.52;1.40;;;;;;;4.30;57.80;101297.91;10349510;28;20054;-51
2023/01/28 12:51:13;;;;;;;2.45;1.67;;;;;;;4.25;56.81;101301.56;10350591;28;20049;-52
2023/01/28 12:56:19;;;;;;;2.20;1.98;;;;;;;4.31;56.67;101296.97;10346518;28;20045;-52
2023/01/28 13:01:28;;;;;;;2.40;2.20;;;;;;;4.41;55.81;101300.97;10348797;28;20788;-52
2023/01/28 13:06:40;;;;;;;2.60;2.20;;;;;;;4.40;55.75;101291.38;10347720;28;20081;-51
2023/01/28 13:11:42;;;;;;;3.13;2.45;;;;;;;4.22;55.78;101285.88;10349288;28;20048;-51
2023/01/28 13:16:44;;;;;;;6.32;4.35;;;;;;;4.24;56.77;101306.91;10352179;28;20064;-52
2023/01/28 13:21:46;;;;;;;6.80;3.72;;;;;;;4.30;56.72;101305.81;10350737;28;20068;-51
2023/01/28 13:27:11;;;;;;;3.90;2.70;;;;;;;4.34;55.89;101317.94;10351010;28;20139;-51
2023/01/28 13:32:34;;;;;;;6.03;4.00;;;;;;;4.20;55.12;101302.66;10347683;28;20077;-52
2023/01/28 13:37:42;;;;;;;4.93;3.40;;;;;;;3.94;55.51;101332.59;10348037;28;20095;-52
2023/01/28 13:42:44;;;;;;;2.75;2.30;;;;;;;4.10;55.49;101331.13;10347020;28;21003;-52
2023/01/28 13:47:50;;;;;;;3.35;2.40;;;;;;;4.00;54.89;101298.13;10350469;28;21284;-53
2023/01/28 13:53:18;;;;;;;2.65;1.40;;;;;;;3.91;55.51;101293.19;10346432;28;20137;-51
2023/01/28 13:58:43;;;;;;;5.00;2.20;;;;;;;4.28;55.27;101328.72;10349681;28;20049;-51
2023/01/28 14:04:05;;;;;;;3.42;1.90;;;;;;;4.19;53.61;101348.38;10344271;28;20192;-51
2023/01/28 14:09:46;;;;;;;2.70;1.55;;;;;;;4.23;53.62;101329.78;10346305;28;20519;-52
2023/01/28 14:15:09;;;;;;;2.42;1.58;;;;;;;4.29;54.25;101339.19;10329746;28;20060;-52
2023/01/28 14:20:25;;;;;;;3.40;2.05;;;;;;;4.32;53.58;101331.19;10343962;28;20096;-51
2023/01/28 14:25:53;;;;;;;;;;;;;;;4.25;53.70;101346.38;10347700;28;20052;-52
2023/01/28 14:31:13;;;;;;;3.78;1.33;;;;;;;4.31;53.39;101333.88;10348477;28;20152;-52
2023/01/28 14:36:15;;;;;;;2.58;1.80;;;;;;;4.35;53.49;101344.25;10343862;28;20061;-51
2023/01/28 14:41:24;;;;;;;1.98;1.77;;;;;;;3.96;54.19;101349.19;10346602;28;20050;-52
2023/01/28 14:46:43;;;;;;;2.35;1.63;;;;;;;4.11;53.96;101348.63;10340197;28;20050;-51
2023/01/28 14:51:51;;;;;;;2.22;1.67;;;;;;;4.07;53.26;101337.34;10346559;28;20037;-51
2023/01/28 14:57:02;;;;;;;2.53;1.50;;;;;;;4.07;52.93;101337.34;10346574;28;20153;-51
2023/01/28 15:02:20;;;;;;;2.72;1.60;;;;;;;4.04;53.74;101331.34;10347217;28;20105;-51
2023/01/28 15:07:24;;;;;;;2.83;1.83;;;;;;;3.98;52.69;101324.53;10347567;28;20046;-51
2023/01/28 15:12:26;;;;;;;4.20;2.13;;;;;;;4.10;53.21;101328.50;10349953;28;20092;-51
2023/01/28 15:17:27;;;;;;;4.22;1.80;;;;;;;4.05;53.09;101327.78;10347663;28;20049;-51
2023/01/28 15:22:28;;;;;;;4.13;2.00;;;;;;;3.99;53.61;101328.00;10349957;28;20057;-53
2023/01/28 15:27:31;;;;;;;2.15;1.95;;;;;;;3.97;53.24;101295.59;10341997;28;20054;-52
2023/01/28 15:32:32;;;;;;;2.97;1.75;;;;;;;4.09;53.10;101313.59;10341409;28;20085;-51
2023/01/28 15:37:34;;;;;;;2.75;2.00;;;;;;;3.97;53.45;101308.78;10345832;28;20045;-51
2023/01/28 15:42:37;;;;;;;2.55;2.25;;;;;;;3.94;53.09;101314.16;10335024;28;20063;-51
2023/01/28 15:47:39;;;;;;;2.00;1.48;;;;;;;3.97;53.77;101319.31;10345930;28;20107;-52
2023/01/28 15:52:44;;;;;;;2.58;1.98;;;;;;;3.94;53.47;101319.41;10354617;28;21408;-51
2023/01/28 15:57:45;;;;;;;3.70;2.47;;;;;;;3.97;53.16;101329.84;10351019;28;20441;-51
2023/01/28 16:02:52;;;;;;;3.60;2.55;;;;;;;3.87;53.47;101319.66;10354584;28;20042;-51
2023/01/28 16:07:55;;;;;;;7.10;2.78;;;;;;;3.83;53.67;101328.56;10355315;28;20042;-51
2023/01/28 16:13:05;;;;;;;5.05;2.58;;;;;;;3.79;53.79;101340.09;10351808;28;20056;-51
2023/01/28 16:18:06;;;;;;;11.18;5.35;;;;;;;3.71;53.89;101336.91;10344129;28;20052;-51
2023/01/28 16:23:21;;;;;;;4.78;3.20;;;;;;;3.73;53.58;101348.22;10320826;28;20063;-51
2023/01/28 16:28:22;;;;;;;4.10;3.50;;;;;;;3.68;53.77;101335.22;10353702;28;20041;-51
2023/01/28 16:33:25;;;;;;;5.30;4.45;;;;;;;3.78;53.55;101369.97;10351322;28;20081;-51
2023/01/28 16:38:26;;;;;;;6.63;5.07;;;;;;;3.77;54.16;101360.38;10348952;28;20059;-50
2023/01/28 16:43:28;;;;;;;4.72;3.70;;;;;;;3.73;53.72;101361.38;10336974;28;20041;-51
2023/01/28 16:48:29;;;;;;;5.25;4.47;;;;;;;3.41;53.66;101341.41;10335600;28;20056;-51
2023/01/28 16:53:32;;;;;;;5.07;4.53;;;;;;;3.56;54.08;101355.81;10346384;28;20629;-50
2023/01/28 16:58:34;;;;;;;4.93;4.43;;;;;;;3.57;54.77;101362.81;10339521;28;20544;-51
2023/01/28 17:03:35;;;;;;;4.35;3.95;;;;;;;3.58;54.59;101369.81;10344808;28;20041;-50
2023/01/28 17:08:37;;;;;;;5.43;4.68;;;;;;;3.62;54.39;101368.78;10331542;28;20813;-50
2023/01/28 17:13:39;;;;;;;5.72;5.05;;;;;;;3.56;53.99;101374.25;10335981;28;20496;-50
2023/01/28 17:18:40;;;;;;;6.05;5.45;;;;;;;3.59;54.29;101387.31;10346341;28;20058;-50
2023/01/28 17:23:42;;;;;;;9.07;5.95;;;;;;;3.61;54.26;101401.31;10349866;28;21498;-50
2023/01/28 17:28:44;;;;;;;8.55;7.10;;;;;;;3.56;54.61;101400.59;10355006;28;20056;-50
2023/01/28 17:33:45;;;;;;;7.28;6.00;;;;;;;3.52;54.64;101403.31;10348526;28;20112;-50
2023/01/28 17:38:47;;;;;;;6.57;5.40;;;;;;;3.51;55.22;101399.00;10343992;28;20057;-50
2023/01/28 17:43:50;;;;;;;8.68;5.45;;;;;;;3.34;53.79;101382.88;10361184;28;20194;-50
2023/01/28 17:48:52;;;;;;;6.20;5.60;;;;;;;3.30;54.88;101390.00;10358553;28;20050;-50
2023/01/28 17:53:53;;;;;;;12.23;6.38;;;;;;;3.35;54.58;101421.44;10338776;28;20069;-50
2023/01/28 17:59:05;;;;;;;8.63;5.80;;;;;;;3.41;54.41;101426.50;10343937;28;21040;-53
2023/01/28 18:04:06;;;;;;;6.57;5.97;;;;;;;3.41;54.68;101438.78;10348230;28;20064;-50
2023/01/28 18:09:08;;;;;;;6.68;5.88;;;;;;;3.51;54.98;101427.94;10342683;28;21148;-50
2023/01/28 18:14:10;;;;;;;6.22;5.60;;;;;;;3.49;54.59;101429.75;10345371;28;20180;-50
2023/01/28 18:19:12;;;;;;;6.90;5.25;;;;;;;3.51;54.81;101430.59;10348240;28;20088;-51
2023/01/28 18:24:13;;;;;;;6.05;4.45;;;;;;;3.50;54.61;101442.00;10341451;28;20061;-50
2023/01/28 18:29:19;;;;;;;5.25;4.72;;;;;;;3.48;55.30;101458.75;10347963;28;20049;-52
2023/01/28 18:34:25;;;;;;;8.13;5.28;;;;;;;3.41;55.12;101471.25;10346810;28;22003;-50
2023/01/28 18:39:30;;;;;;;8.05;5.22;;;;;;;3.46;55.76;101477.25;10337244;28;20794;-50
2023/01/28 18:44:31;;;;;;;6.57;5.40;;;;;;;3.41;56.21;101476.53;10336211;28;20042;-50
2023/01/28 18:49:33;;;;;;;7.47;5.72;;;;;;;3.28;55.93;101454.13;10342255;28;20049;-50
2023/01/28 18:54:35;;;;;;;8.52;5.90;;;;;;;3.34;56.50;101475.84;10332667;28;21215;-51
2023/01/28 18:59:36;;;;;;;8.50;5.40;;;;;;;3.27;56.66;101476.97;10341999;28;20120;-51
2023/01/28 19:04:38;;;;;;;6.53;5.50;;;;;;;3.31;56.35;101470.66;10328045;28;20068;-51
2023/01/28 19:09:39;;;;;;;6.57;5.50;;;;;;;3.28;56.34;101483.06;10343342;28;20589;-51
2023/01/28 19:14:40;;;;;;;9.75;6.05;;;;;;;3.03;56.35;101441.69;10340360;28;20049;-50
2023/01/28 19:19:42;;;;;;;9.18;6.47;;;;;;;3.25;56.54;101498.97;10349194;28;20439;-51
2023/01/28 19:24:43;;;;;;;9.38;7.65;;;;;;;3.10;56.83;101485.34;10347126;28;20053;-50
2023/01/28 19:29:45;;;;;;;7.55;6.57;;;;;;;3.17;56.75;101491.31;10334887;28;20077;-52
2023/01/28 19:34:46;;;;;;;6.40;5.20;;;;;;;3.21;57.29;101484.16;10345385;28;20115;-51
2023/01/28 19:39:48;;;;;;;9.50;7.25;;;;;;;3.23;57.11;101485.84;10338822;28;20575;-50
2023/01/28 19:44:50;;;;;;;8.52;7.20;;;;;;;3.16;56.89;101474.63;10346578;28;20714;-50
2023/01/28 19:49:51;;;;;;;7.28;6.30;;;;;;;2.96;57.58;101490.16;10346488;28;20046;-51
2023/01/28 19:54:52;;;;;;;10.55;7.00;;;;;;;3.13;56.90;101479.97;10341335;28;20050;-51
2023/01/28 19:59:54;;;;;;;6.78;5.65;;;;;;;3.21;56.32;101486.78;10336747;28;20049;-51
2023/01/28 20:04:56;;;;;;;9.05;6.05;;;;;;;3.22;55.60;101501.69;10340976;28;20187;-51
2023/01/28 20:10:01;;;;;;;6.80;4.78;;;;;;;3.22;55.76;101501.69;10331905;28;20155;-52
2023/01/28 20:15:03;;;;;;;4.72;4.05;;;;;;;3.21;55.30;101502.59;10342305;28;20064;-49
2023/01/28 20:20:05;;;;;;;6.20;5.22;;;;;;;3.07;55.20;101490.69;10339850;28;20046;-52
2023/01/28 20:25:07;;;;;;;6.55;5.32;;;;;;;3.12;55.49;101504.59;10339285;28;20125;-52
2023/01/28 20:30:10;;;;;;;8.05;6.25;;;;;;;3.14;55.59;101501.91;10337814;28;20557;-51
2023/01/28 20:35:11;;;;;;;7.68;6.72;;;;;;;3.13;56.11;101516.81;10351847;28;20055;-51
2023/01/28 20:40:13;;;;;;;5.10;4.65;;;;;;;3.03;54.11;101499.56;10349158;28;21554;-51
2023/01/28 20:45:14;;;;;;;8.70;6.43;;;;;;;3.04;54.94;101501.31;10351521;28;20542;-51
2023/01/28 20:50:16;;;;;;;5.45;4.70;;;;;;;2.96;54.66;101513.84;10349953;28;20522;-51
2023/01/28 20:55:18;;;;;;;5.63;5.05;;;;;;;2.99;54.83;101509.34;10344734;28;20058;-52
2023/01/28 21:00:20;;;;;;;5.60;5.10;;;;;;;3.08;55.29;101534.53;10346583;28;20053;-51
2023/01/28 21:05:22;;;;;;;6.50;5.53;;;;;;;3.02;55.02;101526.81;10344161;28;20058;-51
2023/01/28 21:10:23;;;;;;;8.75;7.03;;;;;;;3.02;55.12;101508.41;10345982;28;20091;-51
2023/01/28 21:15:25;;;;;;;35.53;21.23;;;;;;;3.14;54.44;101523.81;10349949;28;20396;-50
2023/01/28 21:20:28;;;;;;;45.85;22.98;;;;;;;3.15;55.13;101515.03;10347239;28;20662;-51
2023/01/28 21:25:31;;;;;;;6.75;5.90;;;;;;;3.15;54.74;101517.66;10343535;28;20052;-51
2023/01/28 21:30:32;;;;;;;5.88;4.70;;;;;;;3.19;54.89;101521.91;10342757;28;20054;-51
2023/01/28 21:35:42;;;;;;;4.80;4.20;;;;;;;3.12;54.75;101515.13;10351163;28;20078;-50
2023/01/28 21:40:43;;;;;;;5.43;4.93;;;;;;;3.11;54.72;101510.75;10344629;28;20046;-52
2023/01/28 21:45:47;;;;;;;5.00;4.05;;;;;;;3.03;53.88;101517.13;10340777;28;20061;-51
2023/01/28 21:56:09;;;;;;;6.90;6.30;;;;;;;3.01;54.37;101502.25;10342171;28;21013;-51
2023/01/28 22:01:10;;;;;;;5.75;5.22;;;;;;;2.98;54.72;101504.97;10344010;28;20550;-52
2023/01/28 22:06:11;;;;;;;5.15;4.65;;;;;;;2.94;55.10;101500.72;10345873;28;20440;-51
2023/01/28 22:11:13;;;;;;;7.40;5.25;;;;;;;2.98;55.14;101501.50;10344150;28;20756;-56
2023/01/28 22:16:15;;;;;;;7.50;6.22;;;;;;;3.03;55.62;101504.00;10342286;28;20054;-51
2023/01/28 22:21:17;;;;;;;10.48;5.90;;;;;;;3.07;55.48;101505.63;10342470;28;20045;-49
2023/01/28 22:26:18;;;;;;;5.78;5.28;;;;;;;3.07;55.05;101503.00;10350821;28;20045;-52
2023/01/28 22:31:19;;;;;;;6.72;5.85;;;;;;;3.04;55.13;101503.09;10345081;28;20145;-52
2023/01/28 22:36:21;;;;;;;5.82;5.32;;;;;;;3.04;54.97;101506.56;10350683;28;20124;-51
2023/01/28 22:41:23;;;;;;;6.00;5.40;;;;;;;3.00;55.25;101504.94;10345949;28;20051;-51
2023/01/28 22:46:25;;;;;;;6.43;5.55;;;;;;;3.04;55.30;101506.56;10344022;28;20137;-51
2023/01/28 22:51:29;;;;;;;5.95;5.32;;;;;;;2.99;55.46;101488.28;10342659;28;20125;-50
2023/01/28 22:56:31;;;;;;;6.93;6.22;;;;;;;3.00;55.56;101497.91;10343625;28;20046;-50
2023/01/28 23:01:32;;;;;;;7.32;6.32;;;;;;;2.94;55.55;101484.06;10348156;28;20071;-50
2023/01/28 23:06:35;;;;;;;6.63;5.97;;;;;;;2.89;55.24;101473.69;10346188;28;20696;-51
2023/01/28 23:11:37;;;;;;;6.93;5.82;;;;;;;3.04;55.54;101480.25;10343928;28;20054;-51
2023/01/28 23:27:19;;;;;;;6.68;5.80;;;;;;;2.83;55.02;101477.34;10345158;28;20058;-50
2023/01/28 23:32:21;;;;;;;6.13;5.60;;;;;;;2.79;55.08;101491.50;10345211;28;20077;-50
2023/01/28 23:37:22;;;;;;;4.75;4.22;;;;;;;2.80;54.15;101481.84;10354082;28;20052;-50
2023/01/28 23:42:24;;;;;;;5.10;4.60;;;;;;;2.75;54.45;101474.09;10348689;28;20140;-52
2023/01/28 23:47:26;;;;;;;5.63;5.13;;;;;;;2.79;54.18;101486.25;10348290;28;20145;-51
2023/01/28 23:52:28;;;;;;;5.80;5.30;;;;;;;2.76;54.37;101483.72;10346472;28;20045;-51
2023/01/28 23:57:29;;;;;;;5.85;5.25;;;;;;;2.73;54.18;101475.91;10346934;28;20053;-51
